createdAt,value
2019-04-25T00:02:01.855Z,93.31
2019-04-25T00:04:31.536Z,92.58
2019-04-25T00:07:02.138Z,93.69
2019-04-25T00:09:34.987Z,93.93
2019-04-25T00:12:04.995Z,93.23
2019-04-25T00:14:35.318Z,93.72
2019-04-25T00:17:04.517Z,96.39
2019-04-25T00:19:33.587Z,97.83
2019-04-25T00:22:13.408Z,97.41
2019-04-25T00:25:12.946Z,99.05
2019-04-25T00:27:32.188Z,98.19
2019-04-25T00:30:01.794Z,99.41
2019-04-25T00:32:32.292Z,98.43
2019-04-25T00:35:01.908Z,100.00
2019-04-25T00:37:32.336Z,100.00
2019-04-25T00:40:01.696Z,100.00
2019-04-25T00:42:32.022Z,100.00
2019-04-25T00:45:02.338Z,100.00
2019-04-25T00:47:31.646Z,100.00
2019-04-25T00:50:02.335Z,100.00
2019-04-25T00:52:32.440Z,100.00
2019-04-25T00:55:01.987Z,100.00
2019-04-25T00:57:32.061Z,100.00
2019-04-25T01:00:29.254Z,100.00
2019-04-25T01:02:58.813Z,100.00
2019-04-25T01:05:27.863Z,100.00
2019-04-25T01:07:56.871Z,99.92
2019-04-25T01:10:25.944Z,100.00
2019-04-25T01:12:55.089Z,99.84
2019-04-25T01:15:24.481Z,100.00
2019-04-25T01:17:53.513Z,99.96
2019-04-25T01:20:23.956Z,100.00
2019-04-25T01:22:55.507Z,100.00
2019-04-25T01:25:23.960Z,100.00
2019-04-25T01:27:53.935Z,100.00
2019-04-25T01:30:25.922Z,100.00
2019-04-25T01:32:55.422Z,99.86
2019-04-25T01:35:46.227Z,100.00
2019-04-25T01:38:43.935Z,99.73
2019-04-25T01:41:34.194Z,99.37
2019-04-25T01:44:10.699Z,100.00
2019-04-25T01:46:41.191Z,100.00
2019-04-25T01:49:10.287Z,100.00
2019-04-25T01:51:39.446Z,100.00
2019-04-25T01:54:08.537Z,100.00
2019-04-25T01:56:37.627Z,100.00
2019-04-25T01:59:06.633Z,100.00
2019-04-25T02:01:37.290Z,100.00
2019-04-25T02:04:06.419Z,100.00
2019-04-25T02:06:35.492Z,100.00
2019-04-25T02:09:07.593Z,100.00
2019-04-25T02:11:55.669Z,100.00
2019-04-25T02:14:25.906Z,100.00
2019-04-25T02:16:56.275Z,100.00
2019-04-25T02:19:25.818Z,100.00
2019-04-25T02:21:55.600Z,100.00
2019-04-25T02:24:26.454Z,100.00
2019-04-25T02:26:56.397Z,100.00
2019-04-25T02:29:26.215Z,100.00
2019-04-25T02:32:00.109Z,100.00
2019-04-25T02:34:27.130Z,100.00
2019-04-25T02:36:59.495Z,100.00
2019-04-25T02:39:26.992Z,100.00
2019-04-25T02:41:58.613Z,100.00
2019-04-25T02:44:26.806Z,100.00
2019-04-25T02:47:24.925Z,100.00
2019-04-25T02:50:18.750Z,100.00
2019-04-25T02:53:07.457Z,100.00
2019-04-25T02:55:37.663Z,100.00
2019-04-25T02:58:09.805Z,100.00
2019-04-25T03:00:51.798Z,100.00
2019-04-25T03:03:08.720Z,100.00
2019-04-25T03:05:37.832Z,99.27
2019-04-25T03:08:09.939Z,100.00
2019-04-25T03:10:37.671Z,99.46
2019-04-25T03:13:10.276Z,100.00
2019-04-25T03:15:37.494Z,100.00
2019-04-25T03:18:11.945Z,100.00
2019-04-25T03:20:45.118Z,100.00
2019-04-25T03:23:34.501Z,100.00
2019-04-25T03:26:04.702Z,100.00
2019-04-25T03:28:33.935Z,100.00
2019-04-25T03:31:08.710Z,100.00
2019-04-25T03:33:37.766Z,100.00
2019-04-25T03:36:05.546Z,100.00
2019-04-25T03:38:35.554Z,100.00
2019-04-25T03:41:05.923Z,100.00
2019-04-25T03:43:35.781Z,100.00
2019-04-25T03:46:05.881Z,100.00
2019-04-25T03:48:37.018Z,100.00
2019-04-25T03:51:06.738Z,100.00
2019-04-25T03:53:35.849Z,100.00
2019-04-25T03:56:06.048Z,100.00
2019-04-25T03:58:37.300Z,100.00
2019-04-25T04:01:07.977Z,100.00
2019-04-25T04:03:37.175Z,100.00
2019-04-25T04:06:07.640Z,100.00
2019-04-25T04:08:37.052Z,100.00
2019-04-25T04:11:07.455Z,100.00
2019-04-25T04:13:36.934Z,100.00
2019-04-25T04:16:06.502Z,100.00
2019-04-25T04:18:41.130Z,100.00
2019-04-25T04:21:23.614Z,100.00
2019-04-25T04:24:01.496Z,100.00
2019-04-25T04:26:30.600Z,100.00
2019-04-25T04:28:59.697Z,100.00
2019-04-25T04:31:28.769Z,100.00
2019-04-25T04:33:57.779Z,100.00
2019-04-25T04:36:26.858Z,100.00
2019-04-25T04:38:55.954Z,100.00
2019-04-25T04:41:24.997Z,100.00
2019-04-25T04:43:54.226Z,99.77
2019-04-25T04:46:24.033Z,99.48
2019-04-25T04:48:54.033Z,99.62
2019-04-25T04:51:24.138Z,100.00
2019-04-25T04:53:53.732Z,98.72
2019-04-25T04:56:23.960Z,100.00
2019-04-25T04:58:54.032Z,100.00
2019-04-25T05:01:24.870Z,100.00
2019-04-25T05:04:10.864Z,100.00
2019-04-25T05:06:48.418Z,100.00
2019-04-25T05:09:22.354Z,100.00
2019-04-25T05:11:53.986Z,100.00
2019-04-25T05:14:24.278Z,100.00
2019-04-25T05:16:53.826Z,100.00
2019-04-25T05:19:23.859Z,100.00
2019-04-25T05:21:53.737Z,100.00
2019-04-25T05:24:24.940Z,98.57
2019-04-25T05:26:53.982Z,97.40
2019-04-25T05:29:24.153Z,98.00
2019-04-25T05:31:54.345Z,93.52
2019-04-25T05:34:25.616Z,93.40
2019-04-25T05:36:54.251Z,90.73
2019-04-25T05:39:24.087Z,87.51
2019-04-25T05:42:17.148Z,89.42
2019-04-25T05:44:46.197Z,88.06
2019-04-25T05:47:16.277Z,88.10
2019-04-25T05:49:46.083Z,89.68
2019-04-25T05:52:15.958Z,88.70
2019-04-25T05:54:45.121Z,86.37
2019-04-25T05:57:14.326Z,89.62
2019-04-25T05:59:43.723Z,91.03
2019-04-25T06:02:13.966Z,85.45
2019-04-25T06:04:43.583Z,86.48
2019-04-25T06:07:14.566Z,90.33
2019-04-25T06:09:51.656Z,89.14
2019-04-25T06:12:48.591Z,87.01
2019-04-25T06:15:19.963Z,89.43
2019-04-25T06:18:19.944Z,92.03
2019-04-25T06:20:49.066Z,91.15
2019-04-25T06:23:46.473Z,89.19
2019-04-25T06:26:24.915Z,90.57
2019-04-25T06:28:53.615Z,88.36
2019-04-25T06:31:19.726Z,89.16
2019-04-25T06:33:48.948Z,91.35
2019-04-25T06:36:18.079Z,91.47
2019-04-25T06:38:47.284Z,92.23
2019-04-25T06:41:16.389Z,93.63
2019-04-25T06:43:47.072Z,94.16
2019-04-25T06:46:35.054Z,94.74
2019-04-25T06:49:18.468Z,93.01
2019-04-25T06:51:51.626Z,92.80
2019-04-25T06:54:21.731Z,93.02
2019-04-25T06:56:50.987Z,92.90
2019-04-25T06:59:22.995Z,93.16
2019-04-25T07:01:54.085Z,93.04
2019-04-25T07:04:26.261Z,94.13
2019-04-25T07:06:53.901Z,92.53
2019-04-25T07:09:26.851Z,94.49
2019-04-25T07:11:55.092Z,93.62
2019-04-25T07:14:25.879Z,94.57
2019-04-25T07:16:56.001Z,91.45
2019-04-25T07:19:28.226Z,89.86
2019-04-25T07:21:57.421Z,90.47
2019-04-25T07:24:27.255Z,90.55
2019-04-25T07:27:13.941Z,91.80
2019-04-25T07:29:57.274Z,90.51
2019-04-25T07:32:35.742Z,91.68
2019-04-25T07:35:05.161Z,92.74
2019-04-25T07:37:37.122Z,88.02
2019-04-25T07:40:06.975Z,86.84
2019-04-25T07:42:36.378Z,87.17
2019-04-25T07:45:06.257Z,87.49
2019-04-25T07:47:36.361Z,85.26
2019-04-25T07:50:06.512Z,86.47
2019-04-25T07:52:35.795Z,88.28
2019-04-25T07:55:05.262Z,83.07
2019-04-25T07:57:34.908Z,84.22
2019-04-25T08:00:08.162Z,86.28
2019-04-25T08:02:37.546Z,86.49
2019-04-25T08:05:10.948Z,84.15
2019-04-25T08:07:40.469Z,84.43
2019-04-25T08:10:10.804Z,81.67
2019-04-25T08:12:40.564Z,83.82
2019-04-25T08:15:18.683Z,84.41
2019-04-25T08:18:09.865Z,86.37
2019-04-25T08:20:38.916Z,86.68
2019-04-25T08:23:08.066Z,88.75
2019-04-25T08:25:39.276Z,90.43
2019-04-25T08:28:07.949Z,89.55
2019-04-25T08:30:38.097Z,91.69
2019-04-25T08:33:07.345Z,88.96
2019-04-25T08:35:36.614Z,89.20
2019-04-25T08:38:06.018Z,88.16
2019-04-25T08:40:37.323Z,86.27
2019-04-25T08:43:05.997Z,90.34
2019-04-25T08:45:35.779Z,89.47
2019-04-25T08:48:06.290Z,91.13
2019-04-25T08:50:47.650Z,89.02
2019-04-25T08:53:16.772Z,88.40
2019-04-25T08:56:10.815Z,90.42
2019-04-25T08:59:17.969Z,89.01
2019-04-25T09:01:53.551Z,88.32
2019-04-25T09:04:30.154Z,89.58
2019-04-25T09:06:59.180Z,86.09
2019-04-25T09:09:28.303Z,81.07
2019-04-25T09:11:57.378Z,80.61
2019-04-25T09:14:26.483Z,80.87
2019-04-25T09:16:55.563Z,79.47
2019-04-25T09:19:24.620Z,76.76
2019-04-25T09:21:53.713Z,77.23
2019-04-25T09:24:24.528Z,76.12
2019-04-25T09:26:54.127Z,72.63
2019-04-25T09:29:23.556Z,72.27
2019-04-25T09:31:53.766Z,70.84
2019-04-25T09:34:23.815Z,67.51
2019-04-25T09:36:53.660Z,66.71
2019-04-25T09:39:45.467Z,66.41
2019-04-25T09:42:15.052Z,66.26
2019-04-25T09:45:05.251Z,62.80
2019-04-25T09:47:35.632Z,63.18
2019-04-25T09:50:07.862Z,62.06
2019-04-25T09:52:40.195Z,62.85
2019-04-25T09:55:18.811Z,63.15
2019-04-25T09:57:56.526Z,59.47
2019-04-25T10:00:30.935Z,59.92
2019-04-25T10:03:01.032Z,59.77
2019-04-25T10:05:30.370Z,62.84
2019-04-25T10:07:59.572Z,62.29
2019-04-25T10:10:28.762Z,60.61
2019-04-25T10:12:57.930Z,57.88
2019-04-25T10:16:04.429Z,60.16
2019-04-25T10:18:34.008Z,56.50
2019-04-25T10:21:04.545Z,59.68
2019-04-25T10:23:34.299Z,58.05
2019-04-25T10:26:03.930Z,60.53
2019-04-25T10:28:33.720Z,58.83
2019-04-25T10:31:03.555Z,61.29
2019-04-25T10:33:32.915Z,60.18
2019-04-25T10:36:02.216Z,56.83
2019-04-25T10:38:31.447Z,58.37
2019-04-25T10:41:04.186Z,59.45
2019-04-25T10:43:34.198Z,56.17
2019-04-25T10:46:05.241Z,55.72
2019-04-25T10:48:35.220Z,55.18
2019-04-25T10:51:05.366Z,50.99
2019-04-25T10:53:34.659Z,52.46
2019-04-25T10:56:05.995Z,52.05
2019-04-25T10:58:35.309Z,54.18
2019-04-25T11:01:05.244Z,56.09
2019-04-25T11:03:44.532Z,56.50
2019-04-25T11:06:16.659Z,55.41
2019-04-25T11:08:46.976Z,55.33
2019-04-25T11:11:17.515Z,53.88
2019-04-25T11:13:46.656Z,55.37
2019-04-25T11:16:15.875Z,53.46
2019-04-25T11:18:46.313Z,53.33
2019-04-25T11:21:15.570Z,53.11
2019-04-25T11:23:47.699Z,49.58
2019-04-25T11:26:15.641Z,46.94
2019-04-25T11:28:45.341Z,46.16
2019-04-25T11:31:20.825Z,49.73
2019-04-25T11:33:50.927Z,50.32
2019-04-25T11:36:20.145Z,49.94
2019-04-25T11:39:14.419Z,45.64
2019-04-25T11:41:46.073Z,49.35
2019-04-25T11:44:14.478Z,48.03
2019-04-25T11:46:45.335Z,47.26
2019-04-25T11:49:15.235Z,46.95
2019-04-25T11:51:45.147Z,47.07
2019-04-25T11:54:15.206Z,47.88
2019-04-25T11:56:45.779Z,46.88
2019-04-25T11:59:16.613Z,43.43
2019-04-25T12:01:47.542Z,43.88
2019-04-25T12:04:16.763Z,44.94
2019-04-25T12:06:47.499Z,45.77
2019-04-25T12:09:18.106Z,47.19
2019-04-25T12:11:48.505Z,46.18
2019-04-25T12:14:17.774Z,45.29
2019-04-25T12:16:50.082Z,43.83
2019-04-25T12:19:32.507Z,43.92
2019-04-25T12:21:50.780Z,41.99
2019-04-25T12:24:19.886Z,42.14
2019-04-25T12:26:49.060Z,43.48
2019-04-25T12:29:18.192Z,44.15
2019-04-25T12:31:47.678Z,41.51
2019-04-25T12:34:16.766Z,40.26
2019-04-25T12:36:45.868Z,41.68
2019-04-25T12:39:14.987Z,41.47
2019-04-25T12:41:45.848Z,41.73
2019-04-25T12:44:29.925Z,41.35
2019-04-25T12:47:01.006Z,42.01
2019-04-25T12:49:31.100Z,42.01
2019-04-25T12:52:00.277Z,42.53
2019-04-25T12:54:29.471Z,39.31
2019-04-25T12:56:58.544Z,38.03
2019-04-25T12:59:27.626Z,40.12
2019-04-25T13:01:57.439Z,39.99
2019-04-25T13:04:26.523Z,38.86
2019-04-25T13:06:55.961Z,38.78
2019-04-25T13:09:25.071Z,38.44
2019-04-25T13:11:54.209Z,37.67
2019-04-25T13:14:23.300Z,37.82
2019-04-25T13:16:52.410Z,40.82
2019-04-25T13:19:25.946Z,41.14
2019-04-25T13:21:52.394Z,38.34
2019-04-25T13:24:21.508Z,39.93
2019-04-25T13:27:00.556Z,39.66
2019-04-25T13:29:50.105Z,39.58
2019-04-25T13:32:41.307Z,38.65
2019-04-25T13:35:18.552Z,40.36
2019-04-25T13:37:47.663Z,39.35
2019-04-25T13:40:17.520Z,37.46
2019-04-25T13:42:47.526Z,39.05
2019-04-25T13:45:16.869Z,38.75
2019-04-25T13:47:45.991Z,40.44
2019-04-25T13:50:15.221Z,43.07
2019-04-25T13:52:44.369Z,43.81
2019-04-25T13:55:13.715Z,41.60
2019-04-25T13:57:42.808Z,42.96
2019-04-25T14:00:11.849Z,42.72
2019-04-25T14:02:40.946Z,42.31
2019-04-25T14:05:12.622Z,43.57
2019-04-25T14:07:40.885Z,43.57
2019-04-25T14:10:10.339Z,44.33
2019-04-25T14:12:39.459Z,43.38
2019-04-25T14:15:10.133Z,45.59
2019-04-25T14:17:54.383Z,47.30
2019-04-25T14:20:30.059Z,47.55
2019-04-25T14:22:59.232Z,47.55
2019-04-25T14:25:28.494Z,48.21
2019-04-25T14:27:58.736Z,48.82
2019-04-25T14:30:30.452Z,47.87
2019-04-25T14:32:59.578Z,48.05
2019-04-25T14:35:29.031Z,47.33
2019-04-25T14:37:58.343Z,48.38
2019-04-25T14:40:27.522Z,47.98
2019-04-25T14:42:56.627Z,47.63
2019-04-25T14:45:26.619Z,48.25
2019-04-25T14:47:55.783Z,48.76
2019-04-25T14:50:46.210Z,48.92
2019-04-25T14:53:15.318Z,49.01
2019-04-25T14:55:59.666Z,49.78
2019-04-25T14:58:31.465Z,49.61
2019-04-25T15:01:00.557Z,52.90
2019-04-25T15:03:29.749Z,54.01
2019-04-25T15:05:58.806Z,55.59
2019-04-25T15:08:28.566Z,57.89
2019-04-25T15:10:57.646Z,57.83
2019-04-25T15:13:27.756Z,56.53
2019-04-25T15:15:56.905Z,56.61
2019-04-25T15:18:26.721Z,52.91
2019-04-25T15:20:55.800Z,49.58
2019-04-25T15:23:25.432Z,48.75
2019-04-25T15:25:54.924Z,49.98
2019-04-25T15:28:24.512Z,50.31
2019-04-25T15:30:53.717Z,49.88
2019-04-25T15:33:24.151Z,49.83
2019-04-25T15:36:02.337Z,48.67
2019-04-25T15:38:43.153Z,49.40
2019-04-25T15:41:37.986Z,48.80
2019-04-25T15:44:20.106Z,49.38
2019-04-25T15:46:50.491Z,50.76
2019-04-25T15:49:19.614Z,51.59
2019-04-25T15:51:48.740Z,51.19
2019-04-25T15:54:17.836Z,52.41
2019-04-25T15:56:46.977Z,52.97
2019-04-25T15:59:16.119Z,54.49
2019-04-25T16:01:45.244Z,53.73
2019-04-25T16:04:14.552Z,54.10
2019-04-25T16:06:43.598Z,55.27
2019-04-25T16:09:12.754Z,55.66
2019-04-25T16:11:41.746Z,54.81
2019-04-25T16:14:10.830Z,56.48
2019-04-25T16:16:39.893Z,57.14
2019-04-25T16:19:09.135Z,58.15
2019-04-25T16:21:38.249Z,58.92
2019-04-25T16:24:07.576Z,59.32
2019-04-25T16:26:36.700Z,59.54
2019-04-25T16:29:05.868Z,58.17
2019-04-25T16:31:35.015Z,58.08
2019-04-25T16:34:04.098Z,59.72
2019-04-25T16:36:33.286Z,59.88
2019-04-25T16:39:04.032Z,60.77
2019-04-25T16:41:33.804Z,61.63
2019-04-25T16:44:07.241Z,60.92
2019-04-25T16:46:37.309Z,61.58
2019-04-25T16:49:06.401Z,62.03
2019-04-25T16:51:46.993Z,61.66
2019-04-25T16:54:22.494Z,61.15
2019-04-25T16:57:02.714Z,62.12
2019-04-25T16:59:39.477Z,62.37
2019-04-25T17:02:32.482Z,61.91
2019-04-25T17:04:52.228Z,63.27
2019-04-25T17:07:21.525Z,62.45
2019-04-25T17:09:50.544Z,63.60
2019-04-25T17:12:20.533Z,61.67
2019-04-25T17:15:08.542Z,61.48
2019-04-25T17:17:45.830Z,62.29
2019-04-25T17:20:18.627Z,62.23
2019-04-25T17:22:47.785Z,61.56
2019-04-25T17:25:17.226Z,61.88
2019-04-25T17:27:46.338Z,62.12
2019-04-25T17:30:15.436Z,62.55
2019-04-25T17:33:00.455Z,62.54
2019-04-25T17:36:03.594Z,63.28
2019-04-25T17:38:51.609Z,64.10
2019-04-25T17:41:20.681Z,64.19
2019-04-25T17:43:49.815Z,64.48
2019-04-25T17:46:20.685Z,64.42
2019-04-25T17:48:50.849Z,64.89
2019-04-25T17:51:19.897Z,65.52
2019-04-25T17:53:49.014Z,65.96
2019-04-25T17:56:18.109Z,65.58
2019-04-25T17:58:47.200Z,66.03
2019-04-25T18:01:20.059Z,66.08
2019-04-25T18:03:49.164Z,67.00
2019-04-25T18:06:18.175Z,67.45
2019-04-25T18:08:47.266Z,67.94
2019-04-25T18:11:16.316Z,68.50
2019-04-25T18:13:45.436Z,69.19
2019-04-25T18:16:43.456Z,69.96
2019-04-25T18:19:32.233Z,70.42
2019-04-25T18:22:20.195Z,69.98
2019-04-25T18:25:06.166Z,70.14
2019-04-25T18:28:01.310Z,70.93
2019-04-25T18:30:31.071Z,70.03
2019-04-25T18:33:22.136Z,71.29
2019-04-25T18:35:52.347Z,70.79
2019-04-25T18:38:31.163Z,71.39
2019-04-25T18:41:22.255Z,71.66
2019-04-25T18:43:54.709Z,71.84
2019-04-25T18:46:27.988Z,71.79
2019-04-25T18:48:57.106Z,72.37
2019-04-25T18:51:26.148Z,71.90
2019-04-25T18:54:17.222Z,71.97
2019-04-25T18:56:57.932Z,71.65
2019-04-25T18:59:42.677Z,71.66
2019-04-25T19:02:42.747Z,71.74
2019-04-25T19:05:33.207Z,72.15
2019-04-25T19:08:02.296Z,72.40
2019-04-25T19:10:31.362Z,71.64
2019-04-25T19:13:12.093Z,71.99
2019-04-25T19:15:31.215Z,73.04
2019-04-25T19:18:00.278Z,72.78
2019-04-25T19:20:29.352Z,73.10
2019-04-25T19:22:58.435Z,73.68
2019-04-25T19:25:29.386Z,73.90
2019-04-25T19:27:58.466Z,73.97
2019-04-25T19:30:27.565Z,74.38
2019-04-25T19:32:56.621Z,74.45
2019-04-25T19:35:25.752Z,75.37
2019-04-25T19:37:56.773Z,75.24
2019-04-25T19:40:44.798Z,76.21
2019-04-25T19:43:31.879Z,76.17
2019-04-25T19:46:00.899Z,76.74
2019-04-25T19:48:30.261Z,77.83
2019-04-25T19:50:59.317Z,78.07
2019-04-25T19:53:28.318Z,76.96
2019-04-25T19:55:57.386Z,76.98
2019-04-25T19:58:26.394Z,76.32
2019-04-25T20:00:55.490Z,76.74
2019-04-25T20:03:31.326Z,76.00
2019-04-25T20:06:14.846Z,76.62
2019-04-25T20:08:57.691Z,76.50
2019-04-25T20:11:33.751Z,78.10
2019-04-25T20:14:02.851Z,78.28
2019-04-25T20:16:34.519Z,78.20
2019-04-25T20:19:04.824Z,78.28
2019-04-25T20:21:34.281Z,77.98
2019-04-25T20:24:03.432Z,77.47
2019-04-25T20:26:32.698Z,77.28
2019-04-25T20:29:01.808Z,77.42
2019-04-25T20:31:30.977Z,77.79
2019-04-25T20:34:05.309Z,76.52
2019-04-25T20:36:30.915Z,76.42
2019-04-25T20:38:59.957Z,77.25
2019-04-25T20:41:29.027Z,76.99
2019-04-25T20:43:58.338Z,77.21
2019-04-25T20:46:27.349Z,78.32
2019-04-25T20:48:56.525Z,78.28
2019-04-25T20:51:25.742Z,77.54
2019-04-25T20:53:54.994Z,77.18
2019-04-25T20:56:24.148Z,77.65
2019-04-25T20:58:53.497Z,76.90
2019-04-25T21:01:22.989Z,76.94
2019-04-25T21:03:55.317Z,76.84
2019-04-25T21:06:29.927Z,77.92
2019-04-25T21:09:00.418Z,78.35
2019-04-25T21:11:29.463Z,78.79
2019-04-25T21:14:17.712Z,77.83
2019-04-25T21:16:52.608Z,78.14
2019-04-25T21:19:35.950Z,78.26
2019-04-25T21:22:05.192Z,77.88
2019-04-25T21:24:34.309Z,78.32
2019-04-25T21:27:03.674Z,78.17
2019-04-25T21:29:34.295Z,78.83
2019-04-25T21:32:03.379Z,78.41
2019-04-25T21:34:32.873Z,78.57
2019-04-25T21:37:02.409Z,78.96
2019-04-25T21:39:42.901Z,78.34
2019-04-25T21:42:40.261Z,78.26
2019-04-25T21:45:09.696Z,78.86
2019-04-25T21:47:38.773Z,78.73
2019-04-25T21:50:08.193Z,78.22
2019-04-25T21:52:37.445Z,78.44
2019-04-25T21:55:06.781Z,78.90
2019-04-25T21:57:36.047Z,79.17
2019-04-25T22:00:09.159Z,80.01
2019-04-25T22:02:38.333Z,79.92
2019-04-25T22:05:08.203Z,80.46
2019-04-25T22:07:38.638Z,80.32
2019-04-25T22:10:08.768Z,79.79
2019-04-25T22:12:38.153Z,81.09
2019-04-25T22:15:09.471Z,82.02
2019-04-25T22:17:39.781Z,83.67
2019-04-25T22:20:08.865Z,83.58
2019-04-25T22:22:38.201Z,83.08
2019-04-25T22:25:07.276Z,83.13
2019-04-25T22:27:37.034Z,82.68
2019-04-25T22:30:09.446Z,83.71
2019-04-25T22:33:09.757Z,84.46
2019-04-25T22:35:57.953Z,84.79
2019-04-25T22:38:28.370Z,84.59
2019-04-25T22:40:57.431Z,85.08
2019-04-25T22:43:27.491Z,84.46
2019-04-25T22:45:56.770Z,84.22
2019-04-25T22:48:45.056Z,84.84
2019-04-25T22:51:15.042Z,85.18
2019-04-25T22:53:44.291Z,85.90
2019-04-25T22:56:13.382Z,86.19
2019-04-25T22:58:42.560Z,86.25
2019-04-25T23:01:27.230Z,86.53
2019-04-25T23:03:58.245Z,87.82
2019-04-25T23:06:27.618Z,87.42
2019-04-25T23:08:56.751Z,87.75
2019-04-25T23:11:26.782Z,87.44
2019-04-25T23:13:56.029Z,84.98
2019-04-25T23:16:25.145Z,85.48
2019-04-25T23:18:54.175Z,84.61
2019-04-25T23:21:23.213Z,83.80
2019-04-25T23:23:52.282Z,85.69
2019-04-25T23:26:43.253Z,86.94
2019-04-25T23:29:13.297Z,88.21
2019-04-25T23:31:43.882Z,87.10
2019-04-25T23:34:15.232Z,86.47
2019-04-25T23:36:44.948Z,86.09
2019-04-25T23:39:15.464Z,85.85
2019-04-25T23:41:46.370Z,85.32
2019-04-25T23:44:16.184Z,86.04
2019-04-25T23:46:45.525Z,86.51
2019-04-25T23:49:14.788Z,87.16
2019-04-25T23:51:43.934Z,86.74
2019-04-25T23:54:13.033Z,85.71
2019-04-25T23:56:42.046Z,87.00
2019-04-25T23:59:11.523Z,87.33
